Time;durP1;ratioP1;P1;durP2;ratioP2;P2;SDS_P1;SDS_P2;PMS_P1;PMS_P2;Temp;Humidity;BMP_temperature;BMP_pressure;BME280_temperature;BME280_humidity;BME280_pressure;Samples;Min_cycle;Max_cycle;Signal;HPM_P1;HPM_P2
2023/12/30 00:01:55;;;;;;;;;;;;;;;4.97;76.18;100118.31;7362112;19;19956;-62
2023/12/30 00:04:20;;;;;;;;;;;;;;;5.01;75.92;100120.00;7365035;19;19922;-63
2023/12/30 00:06:46;;;;;;;;;;;;;;;5.02;75.79;100108.78;7367162;19;19937;-63
2023/12/30 00:09:11;;;;;;;;;;;;;;;5.04;75.92;100105.31;7366993;19;19919;-64
2023/12/30 00:11:36;;;;;;;;;;;;;;;5.08;76.17;100111.34;7366399;19;20006;-64
2023/12/30 00:14:01;;;;;;;;;;;;;;;5.09;76.31;100118.22;7364810;19;19911;-63
2023/12/30 00:16:27;;;;;;;;;;;;;;;5.11;75.83;100095.75;7362772;19;19925;-63
2023/12/30 00:18:52;;;;;;;;;;;;;;;5.14;75.91;100098.34;7361883;19;19923;-63
2023/12/30 00:21:19;;;;;;;;;;;;;;;5.15;76.01;100097.44;7362126;19;20311;-63
2023/12/30 00:23:44;;;;;;;;;;;;;;;5.17;75.86;100095.69;7361875;19;20252;-62
2023/12/30 00:26:17;;;;;;;;;;;;;;;5.19;75.98;100099.16;7364146;19;19926;-63
2023/12/30 00:28:43;;;;;;;;;;;;;;;5.21;76.17;100097.38;7362802;19;20716;-63
2023/12/30 00:31:08;;;;;;;;;;;;;;;5.23;76.39;100089.63;7363882;19;19925;-62
2023/12/30 00:33:33;;;;;;;;;;;;;;;5.25;75.89;100099.06;7361978;19;19953;-63
2023/12/30 00:35:58;;;;;;;;;;;;;;;5.27;76.21;100093.88;7366337;19;19926;-64
2023/12/30 00:38:24;;;;;;;;;;;;;;;5.28;75.96;100088.69;7360651;19;19919;-63
2023/12/30 00:40:49;;;;;;;;;;;;;;;5.29;75.99;100082.63;7365351;19;19937;-62
2023/12/30 00:43:14;;;;;;;;;;;;;;;5.30;76.01;100086.94;7361618;19;20267;-63
2023/12/30 00:45:39;;;;;;;;;;;;;;;5.32;76.05;100084.31;7368941;19;19994;-64
2023/12/30 00:48:05;;;;;;;;;;;;;;;5.33;76.02;100070.53;7364091;19;19935;-62
2023/12/30 00:50:30;;;;;;;;;;;;;;;5.32;75.96;100064.50;7367037;19;20815;-64
2023/12/30 00:52:55;;;;;;;;;;;;;;;5.35;76.08;100064.44;7365186;19;20275;-63
2023/12/30 00:55:21;;;;;;;;;;;;;;;5.36;75.87;100063.56;7360058;19;19923;-63
2023/12/30 00:57:46;;;;;;;;;;;;;;;5.36;75.93;100054.94;7369210;19;19940;-61
2023/12/30 01:00:11;;;;;;;;;;;;;;;5.38;76.38;100048.88;7370145;19;19965;-63
2023/12/30 01:02:37;;;;;;;;;;;;;;;5.39;76.20;100049.75;7364727;19;19938;-64
2023/12/30 01:05:02;;;;;;;;;;;;;;;5.40;75.89;100049.72;7367178;19;20343;-64
2023/12/30 01:07:27;;;;;;;;;;;;;;;5.41;76.27;100041.06;7367010;19;20383;-63
2023/12/30 01:09:52;;;;;;;;;;;;;;;5.42;76.29;100032.44;7363853;19;19974;-63
2023/12/30 01:12:18;;;;;;;;;;;;;;;5.44;75.99;100025.50;7366045;19;19956;-63
2023/12/30 01:14:43;;;;;;;;;;;;;;;5.45;76.03;100022.03;7364787;19;19942;-63
2023/12/30 01:17:08;;;;;;;;;;;;;;;5.47;75.96;100017.69;7368015;19;20351;-63
2023/12/30 01:19:33;;;;;;;;;;;;;;;5.48;76.20;100018.56;7361853;19;19926;-62
2023/12/30 01:21:59;;;;;;;;;;;;;;;5.51;76.19;100012.47;7366189;19;19915;-63
2023/12/30 01:24:26;;;;;;;;;;;;;;;5.52;76.21;100009.00;7362085;19;19919;-62
2023/12/30 01:26:51;;;;;;;;;;;;;;;5.52;76.31;99996.03;7366468;19;20580;-64
2023/12/30 01:29:16;;;;;;;;;;;;;;;5.54;75.96;100002.06;7364626;19;19962;-63
2023/12/30 01:31:41;;;;;;;;;;;;;;;5.55;76.24;99998.59;7366197;19;19926;-62
2023/12/30 01:34:07;;;;;;;;;;;;;;;5.56;76.50;99995.13;7365813;19;20521;-62
2023/12/30 01:36:32;;;;;;;;;;;;;;;5.57;76.31;99996.84;7365438;19;19906;-62
2023/12/30 01:38:57;;;;;;;;;;;;;;;5.58;76.06;99983.03;7362870;19;20800;-63
2023/12/30 01:41:22;;;;;;;;;;;;;;;5.61;76.30;99985.56;7360649;19;19914;-64
2023/12/30 01:43:48;;;;;;;;;;;;;;;5.62;76.03;99989.84;7363952;19;20011;-63
2023/12/30 01:46:13;;;;;;;;;;;;;;;5.62;76.32;99988.13;7370656;19;19919;-63
2023/12/30 01:48:38;;;;;;;;;;;;;;;5.65;76.42;99992.41;7367410;19;20300;-62
2023/12/30 01:51:04;;;;;;;;;;;;;;;5.66;76.08;99988.94;7366149;19;19919;-62
2023/12/30 01:53:35;;;;;;;;;;;;;;;5.67;76.20;99977.69;7357389;19;19926;-63
2023/12/30 01:56:00;;;;;;;;;;;;;;;5.69;76.05;99981.16;7363049;19;19918;-61
2023/12/30 01:58:25;;;;;;;;;;;;;;;5.70;76.41;99988.03;7360097;19;19918;-62
2023/12/30 02:00:54;;;;;;;;;;;;;;;5.60;76.43;99968.31;7366631;19;19922;-62
2023/12/30 02:03:20;;;;;;;;;;;;;;;5.71;76.00;99980.22;7362345;19;19954;-63
2023/12/30 02:05:47;;;;;;;;;;;;;;;5.73;76.30;99969.88;7366825;19;19930;-63
2023/12/30 02:08:12;;;;;;;;;;;;;;;5.75;76.28;99962.91;7368867;19;19918;-62
2023/12/30 02:10:38;;;;;;;;;;;;;;;5.77;75.93;99955.97;7377205;19;19919;-63
2023/12/30 02:13:03;;;;;;;;;;;;;;;5.78;76.60;99943.88;7376587;19;19915;-63
2023/12/30 02:15:28;;;;;;;;;;;;;;;5.79;76.45;99946.47;7380385;19;20632;-63
2023/12/30 02:17:56;;;;;;;;;;;;;;;5.81;76.12;99942.09;7379777;19;20679;-64
2023/12/30 02:20:21;;;;;;;;;;;;;;;5.83;76.38;99937.75;7379179;19;20638;-62
2023/12/30 02:22:47;;;;;;;;;;;;;;;5.84;76.13;99939.47;7377747;19;19990;-62
2023/12/30 02:25:16;;;;;;;;;;;;;;;5.86;76.17;99937.69;7378584;19;19998;-63
2023/12/30 02:27:41;;;;;;;;;;;;;;;5.89;75.92;99927.28;7375010;19;19922;-63
2023/12/30 02:30:07;;;;;;;;;;;;;;;5.90;76.12;99923.81;7375596;19;19926;-63
2023/12/30 02:32:32;;;;;;;;;;;;;;;5.92;75.87;99922.06;7376720;19;20276;-63
2023/12/30 02:34:57;;;;;;;;;;;;;;;5.88;76.33;99907.44;7377135;19;19923;-63
2023/12/30 02:37:22;;;;;;;;;;;;;;;5.95;75.92;99909.09;7374896;19;19935;-63
2023/12/30 02:39:48;;;;;;;;;;;;;;;5.96;76.26;99908.19;7387454;19;19934;-62
2023/12/30 02:42:13;;;;;;;;;;;;;;;5.98;76.29;99906.44;7378992;19;20212;-63
2023/12/30 02:44:38;;;;;;;;;;;;;;;6.00;76.02;99892.59;7379465;19;19915;-63
2023/12/30 02:47:03;;;;;;;;;;;;;;;5.94;76.25;99889.25;7376883;19;19928;-61
2023/12/30 02:49:31;;;;;;;;;;;;;;;6.02;75.99;99896.88;7376732;19;19919;-63
2023/12/30 02:51:57;;;;;;;;;;;;;;;6.03;76.29;99888.19;7379056;19;19922;-63
2023/12/30 02:54:22;;;;;;;;;;;;;;;6.04;76.33;99879.56;7384414;19;19919;-63
2023/12/30 02:56:47;;;;;;;;;;;;;;;6.04;76.23;99879.56;7370282;19;20214;-63
2023/12/30 02:59:13;;;;;;;;;;;;;;;6.06;76.05;99866.56;7374785;19;19930;-62
2023/12/30 03:01:38;;;;;;;;;;;;;;;6.07;76.10;99855.31;7379415;19;19938;-63
2023/12/30 03:04:03;;;;;;;;;;;;;;;6.08;76.07;99836.28;7377331;19;19929;-63
2023/12/30 03:06:29;;;;;;;;;;;;;;;6.09;76.47;99838.88;7377498;19;19956;-63
2023/12/30 03:08:54;;;;;;;;;;;;;;;6.11;76.29;99823.28;7376043;19;19932;-63
2023/12/30 03:11:20;;;;;;;;;;;;;;;6.12;76.27;99814.63;7377035;19;19923;-64
2023/12/30 03:13:45;;;;;;;;;;;;;;;6.16;76.38;99811.09;7374880;19;19926;-62
2023/12/30 03:16:11;;;;;;;;;;;;;;;6.17;76.16;99807.63;7377220;19;19929;-63
2023/12/30 03:18:36;;;;;;;;;;;;;;;6.20;76.53;99799.78;7376650;19;19923;-63
2023/12/30 03:21:02;;;;;;;;;;;;;;;6.22;76.69;99779.88;7361271;19;19915;-62
2023/12/30 03:23:27;;;;;;;;;;;;;;;6.25;76.59;99785.00;7368984;19;19923;-62
2023/12/30 03:25:52;;;;;;;;;;;;;;;6.28;76.58;99769.38;7355884;19;19915;-66
2023/12/30 03:28:18;;;;;;;;;;;;;;;6.31;76.52;99766.72;7372525;19;19949;-62
2023/12/30 03:30:44;;;;;;;;;;;;;;;6.33;76.63;99764.09;7370529;19;19947;-63
2023/12/30 03:33:09;;;;;;;;;;;;;;;6.35;76.48;99750.22;7367989;19;19934;-63
2023/12/30 03:35:35;;;;;;;;;;;;;;;6.40;76.85;99748.38;7368523;19;20610;-62
2023/12/30 03:38:00;;;;;;;;;;;;;;;6.43;76.60;99737.09;7369647;19;19994;-62
2023/12/30 03:40:25;;;;;;;;;;;;;;;6.47;76.74;99739.59;7361876;19;19983;-63
2023/12/30 03:42:51;;;;;;;;;;;;;;;6.52;76.87;99730.84;7353084;19;20275;-62
2023/12/30 03:45:16;;;;;;;;;;;;;;;6.56;76.60;99737.69;7365845;19;19915;-64
2023/12/30 03:47:42;;;;;;;;;;;;;;;6.58;76.59;99723.78;7364113;19;20013;-63
2023/12/30 03:50:07;;;;;;;;;;;;;;;6.59;76.44;99711.66;7367391;19;19918;-64
2023/12/30 03:52:32;;;;;;;;;;;;;;;6.58;76.29;99709.97;7369742;19;20375;-64
2023/12/30 03:54:57;;;;;;;;;;;;;;;6.57;76.61;99692.69;7366323;19;19926;-64
2023/12/30 03:57:23;;;;;;;;;;;;;;;6.55;76.35;99684.97;7368817;19;19926;-64
2023/12/30 03:59:48;;;;;;;;;;;;;;;6.53;76.26;99675.50;7364505;19;19934;-63
2023/12/30 04:02:17;;;;;;;;;;;;;;;6.52;76.41;99673.78;7366552;19;19930;-64
2023/12/30 04:04:43;;;;;;;;;;;;;;;6.49;76.48;99665.22;7364050;19;20769;-63
2023/12/30 04:07:08;;;;;;;;;;;;;;;6.46;76.36;99660.06;7369640;19;19930;-64
2023/12/30 04:09:33;;;;;;;;;;;;;;;6.45;76.37;99665.31;7365454;19;20648;-64
2023/12/30 04:11:58;;;;;;;;;;;;;;;6.45;76.45;99662.72;7361205;19;19998;-63
2023/12/30 04:14:24;;;;;;;;;;;;;;;6.43;76.52;99670.50;7362603;19;19930;-65
2023/12/30 04:16:49;;;;;;;;;;;;;;;6.41;76.15;99682.66;7353348;19;21429;-64
2023/12/30 04:19:15;;;;;;;;;;;;;;;6.40;76.54;99654.19;7351478;19;20412;-64
2023/12/30 04:21:40;;;;;;;;;;;;;;;6.38;76.57;99656.78;7367469;19;19922;-63
2023/12/30 04:24:06;;;;;;;;;;;;;;;6.37;76.45;99664.63;7366682;19;20358;-64
2023/12/30 04:26:31;;;;;;;;;;;;;;;6.36;76.11;99652.53;7366983;19;19923;-64
2023/12/30 04:28:56;;;;;;;;;;;;;;;6.34;76.09;99650.00;7365696;19;19961;-64
2023/12/30 04:31:22;;;;;;;;;;;;;;;6.32;76.59;99631.00;7360545;19;20611;-63
2023/12/30 04:33:47;;;;;;;;;;;;;;;6.30;76.19;99627.59;7368554;19;19971;-64
2023/12/30 04:36:13;;;;;;;;;;;;;;;6.30;76.56;99624.16;7359840;19;19926;-62
2023/12/30 04:38:38;;;;;;;;;;;;;;;6.29;76.54;99609.50;7368759;19;19933;-62
2023/12/30 04:41:03;;;;;;;;;;;;;;;6.28;76.17;99603.44;7365480;19;20635;-62
2023/12/30 04:43:29;;;;;;;;;;;;;;;6.26;76.28;99600.03;7365499;19;19938;-63
2023/12/30 04:45:54;;;;;;;;;;;;;;;6.27;76.81;99590.53;7361576;19;19926;-63
2023/12/30 04:48:19;;;;;;;;;;;;;;;6.27;76.58;99577.56;7365558;19;19923;-63
2023/12/30 04:50:44;;;;;;;;;;;;;;;6.27;76.77;99577.56;7367263;19;20462;-63
2023/12/30 04:53:10;;;;;;;;;;;;;;;6.26;76.82;99568.94;7370148;19;19990;-63
2023/12/30 04:55:36;;;;;;;;;;;;;;;6.26;76.83;99563.75;7367357;19;19943;-64
2023/12/30 04:58:01;;;;;;;;;;;;;;;6.26;76.86;99550.78;7365564;19;19926;-63
2023/12/30 05:00:27;;;;;;;;;;;;;;;6.22;76.87;99531.00;7365099;19;19922;-64
2023/12/30 05:02:52;;;;;;;;;;;;;;;6.28;76.55;99536.03;7367011;19;19923;-63
2023/12/30 05:05:17;;;;;;;;;;;;;;;6.29;76.54;99517.03;7368044;19;20368;-63
2023/12/30 05:07:42;;;;;;;;;;;;;;;6.29;77.01;99506.66;7372726;19;19919;-63
2023/12/30 05:10:09;;;;;;;;;;;;;;;6.31;77.09;99493.66;7371778;19;19915;-64
2023/12/30 05:12:34;;;;;;;;;;;;;;;6.31;77.15;99484.13;7370230;19;20352;-64
2023/12/30 05:14:59;;;;;;;;;;;;;;;6.32;76.76;99462.47;7371625;19;19919;-63
2023/12/30 05:17:25;;;;;;;;;;;;;;;6.35;77.02;99458.97;7366000;19;20290;-63
2023/12/30 05:19:50;;;;;;;;;;;;;;;6.34;77.04;99442.56;7366939;19;20020;-63
2023/12/30 05:22:16;;;;;;;;;;;;;;;6.37;77.18;99426.91;7370267;19;19922;-64
2023/12/30 05:24:41;;;;;;;;;;;;;;;6.39;76.88;99424.31;7362666;19;20253;-64
2023/12/30 05:27:06;;;;;;;;;;;;;;;6.35;77.20;99413.16;7365017;19;19939;-62
2023/12/30 05:29:33;;;;;;;;;;;;;;;6.43;77.07;99400.81;7363574;19;19924;-63
2023/12/30 05:31:58;;;;;;;;;;;;;;;6.44;77.07;99392.19;7368072;19;19922;-63
2023/12/30 05:34:23;;;;;;;;;;;;;;;6.47;76.98;99386.88;7358920;19;20351;-63
2023/12/30 05:36:48;;;;;;;;;;;;;;;6.50;77.31;99366.06;7365633;19;19956;-63
2023/12/30 05:39:14;;;;;;;;;;;;;;;6.53;77.28;99359.09;7365481;19;19931;-64
2023/12/30 05:41:39;;;;;;;;;;;;;;;6.57;77.27;99355.53;7363680;19;20009;-63
2023/12/30 05:44:05;;;;;;;;;;;;;;;6.58;77.03;99336.47;7358639;19;19926;-62
2023/12/30 05:46:31;;;;;;;;;;;;;;;6.61;77.23;99331.22;7359951;19;20747;-62
2023/12/30 05:48:56;;;;;;;;;;;;;;;6.63;77.29;99313.84;7360269;19;19986;-63
2023/12/30 05:51:22;;;;;;;;;;;;;;;6.66;77.07;99311.19;7364218;19;19978;-63
2023/12/30 05:53:47;;;;;;;;;;;;;;;6.69;77.25;99295.50;7364872;19;19919;-63
2023/12/30 05:56:19;;;;;;;;;;;;;;;6.72;77.53;99285.88;7364838;19;19918;-63
2023/12/30 05:58:44;;;;;;;;;;;;;;;6.75;77.08;99280.63;7366463;19;19926;-61
2023/12/30 06:01:10;;;;;;;;;;;;;;;6.78;77.49;99271.88;7360749;19;19923;-63
2023/12/30 06:03:36;;;;;;;;;;;;;;;6.81;77.52;99250.19;7365481;19;19923;-62
2023/12/30 06:06:03;;;;;;;;;;;;;;;6.85;77.18;99250.06;7366205;19;19919;-63
2023/12/30 06:08:28;;;;;;;;;;;;;;;6.90;77.57;99240.38;7364273;19;19918;-62
2023/12/30 06:10:53;;;;;;;;;;;;;;;6.93;77.65;99229.91;7362794;19;20465;-63
2023/12/30 06:13:19;;;;;;;;;;;;;;;6.95;77.58;99212.56;7362671;19;19918;-62
2023/12/30 06:15:47;;;;;;;;;;;;;;;7.00;77.44;99202.88;7364498;19;19927;-63
2023/12/30 06:18:12;;;;;;;;;;;;;;;7.04;77.56;99185.44;7367162;19;19923;-61
2023/12/30 06:20:38;;;;;;;;;;;;;;;7.06;77.46;99162.88;7360031;19;21062;-61
2023/12/30 06:23:03;;;;;;;;;;;;;;;7.10;77.73;99145.47;7365598;19;20320;-62
2023/12/30 06:25:28;;;;;;;;;;;;;;;7.14;77.37;99147.03;7362084;19;20720;-62
2023/12/30 06:27:54;;;;;;;;;;;;;;;7.17;77.37;99129.63;7362490;19;19926;-60
2023/12/30 06:30:19;;;;;;;;;;;;;;;7.22;77.46;99111.31;7366976;19;19915;-62
2023/12/30 06:32:44;;;;;;;;;;;;;;;7.26;77.78;99097.31;7362974;19;19915;-62
2023/12/30 06:35:09;;;;;;;;;;;;;;;7.30;77.98;99104.09;7366829;19;20013;-64
2023/12/30 06:37:35;;;;;;;;;;;;;;;7.35;77.79;99084.03;7370699;19;19919;-62
2023/12/30 06:40:00;;;;;;;;;;;;;;;7.40;77.91;99063.06;7372080;19;20636;-62
2023/12/30 06:42:25;;;;;;;;;;;;;;;7.45;77.45;99062.00;7372879;19;20089;-61
2023/12/30 06:44:51;;;;;;;;;;;;;;;7.50;77.90;99031.53;7366565;19;19930;-63
2023/12/30 06:47:16;;;;;;;;;;;;;;;7.57;77.88;99023.50;7365600;19;19939;-62
2023/12/30 06:49:41;;;;;;;;;;;;;;;7.61;77.85;99012.94;7363082;19;19947;-62
2023/12/30 06:52:06;;;;;;;;;;;;;;;7.67;78.07;99009.25;7365574;19;19923;-62
2023/12/30 06:54:32;;;;;;;;;;;;;;;7.72;77.74;98991.75;7364615;19;19923;-62
2023/12/30 06:56:58;;;;;;;;;;;;;;;7.78;77.88;98986.31;7344884;19;20489;-63
2023/12/30 06:59:23;;;;;;;;;;;;;;;7.85;78.03;98961.75;7371405;19;19923;-61
2023/12/30 07:01:48;;;;;;;;;;;;;;;7.90;78.21;98965.03;7377326;19;20335;-61
2023/12/30 07:04:14;;;;;;;;;;;;;;;7.98;78.21;98954.34;7369736;19;20016;-62
2023/12/30 07:06:39;;;;;;;;;;;;;;;8.05;78.20;98943.63;7375217;19;20428;-61
2023/12/30 07:09:05;;;;;;;;;;;;;;;8.13;77.80;98925.13;7374456;19;20320;-61
2023/12/30 07:11:30;;;;;;;;;;;;;;;8.19;78.20;98913.63;7370452;19;19918;-63
2023/12/30 07:13:56;;;;;;;;;;;;;;;8.28;78.23;98892.44;7370874;19;19914;-62
2023/12/30 07:16:21;;;;;;;;;;;;;;;8.33;78.23;98875.72;7368206;19;19930;-62
2023/12/30 07:18:46;;;;;;;;;;;;;;;8.39;78.20;98868.59;7371868;19;19922;-62
2023/12/30 07:21:12;;;;;;;;;;;;;;;8.44;77.96;98851.88;7369866;19;20373;-62
2023/12/30 07:23:37;;;;;;;;;;;;;;;8.49;78.09;98842.13;7372971;19;19929;-62
2023/12/30 07:26:02;;;;;;;;;;;;;;;8.55;77.81;98834.03;7370850;19;19940;-62
2023/12/30 07:28:29;;;;;;;;;;;;;;;8.61;78.32;98824.28;7364874;19;20006;-62
2023/12/30 07:30:54;;;;;;;;;;;;;;;8.67;78.12;98810.97;7365203;19;19914;-63
2023/12/30 07:33:20;;;;;;;;;;;;;;;8.73;77.88;98805.53;7374938;19;19922;-63
2023/12/30 07:35:45;;;;;;;;;;;;;;;8.77;78.33;98788.88;7369282;19;20262;-63
2023/12/30 07:38:10;;;;;;;;;;;;;;;8.84;78.21;98782.44;7368794;19;19943;-63
2023/12/30 07:40:35;;;;;;;;;;;;;;;8.90;78.45;98758.72;7369577;19;19931;-63
2023/12/30 07:43:01;;;;;;;;;;;;;;;8.98;78.59;98758.38;7363616;19;19926;-64
2023/12/30 07:45:26;;;;;;;;;;;;;;;9.02;78.23;98745.16;7369556;19;19966;-63
2023/12/30 07:47:51;;;;;;;;;;;;;;;9.12;78.24;98731.66;7363654;19;19919;-63
2023/12/30 07:50:17;;;;;;;;;;;;;;;9.17;78.31;98729.69;7366521;19;19919;-63
2023/12/30 07:52:42;;;;;;;;;;;;;;;9.24;78.61;98723.28;7366942;19;19931;-64
2023/12/30 07:55:07;;;;;;;;;;;;;;;9.30;78.88;98722.97;7366475;19;20358;-63
2023/12/30 07:57:33;;;;;;;;;;;;;;;9.35;78.58;98711.41;7368994;19;20011;-63
2023/12/30 07:59:58;;;;;;;;;;;;;;;9.42;78.62;98705.88;7367459;19;19926;-64
2023/12/30 08:02:24;;;;;;;;;;;;;;;9.48;78.79;98685.59;7363398;19;19927;-63
2023/12/30 08:04:49;;;;;;;;;;;;;;;9.54;78.70;98680.06;7364625;19;20484;-62
2023/12/30 08:07:14;;;;;;;;;;;;;;;9.61;78.84;98681.44;7360781;19;20286;-63
2023/12/30 08:09:40;;;;;;;;;;;;;;;9.66;79.04;98672.53;7362724;19;19922;-62
2023/12/30 08:12:05;;;;;;;;;;;;;;;9.71;78.94;98652.31;7365854;19;19915;-63
2023/12/30 08:14:30;;;;;;;;;;;;;;;9.76;78.90;98647.69;7365081;19;19922;-64
2023/12/30 08:16:56;;;;;;;;;;;;;;;9.80;79.14;98638.78;7371357;19;19923;-63
2023/12/30 08:19:21;;;;;;;;;;;;;;;9.85;79.20;98626.34;7370040;19;19930;-63
2023/12/30 08:21:46;;;;;;;;;;;;;;;9.89;79.14;98627.88;7369849;19;19918;-63
2023/12/30 08:24:14;;;;;;;;;;;;;;;9.92;79.03;98619.88;7365059;19;19951;-63
2023/12/30 08:26:40;;;;;;;;;;;;;;;9.95;79.20;98616.28;7369729;19;19918;-63
2023/12/30 08:29:08;;;;;;;;;;;;;;;9.98;79.24;98629.97;7364493;19;19968;-63
2023/12/30 08:31:34;;;;;;;;;;;;;;;10.01;78.99;98590.72;7341338;19;21412;-63
2023/12/30 08:33:59;;;;;;;;;;;;;;;10.04;79.23;98595.78;7367323;19;19930;-63
2023/12/30 08:36:28;;;;;;;;;;;;;;;10.07;79.38;98594.75;7370600;19;20824;-63
2023/12/30 08:38:53;;;;;;;;;;;;;;;10.09;79.14;98588.56;7362237;19;19955;-63
2023/12/30 08:41:23;;;;;;;;;;;;;;;10.12;79.37;98598.78;7370285;19;19923;-64
2023/12/30 08:43:52;;;;;;;;;;;;;;;10.14;79.23;98586.53;7364889;19;19914;-63
2023/12/30 08:46:17;;;;;;;;;;;;;;;10.18;79.22;98588.94;7372078;19;20672;-63
2023/12/30 08:48:42;;;;;;;;;;;;;;;10.20;79.46;98574.06;7368134;19;19919;-63
2023/12/30 08:51:07;;;;;;;;;;;;;;;10.23;79.67;98571.28;7362957;19;19932;-64
2023/12/30 08:53:33;;;;;;;;;;;;;;;10.26;79.55;98555.50;7367366;19;19925;-64
2023/12/30 08:55:58;;;;;;;;;;;;;;;10.28;79.73;98540.59;7368110;19;19929;-63
2023/12/30 08:58:24;;;;;;;;;;;;;;;10.30;79.32;98534.38;7330928;19;19915;-63
2023/12/30 09:00:49;;;;;;;;;;;;;;;10.33;79.64;98528.13;7365846;19;20576;-63
2023/12/30 09:03:14;;;;;;;;;;;;;;;10.34;79.33;98529.81;7364773;19;19918;-63
2023/12/30 09:05:41;;;;;;;;;;;;;;;10.35;79.43;98523.69;7365267;19;19915;-63
2023/12/30 09:08:06;;;;;;;;;;;;;;;10.37;79.82;98524.44;7365718;19;19915;-62
2023/12/30 09:10:31;;;;;;;;;;;;;;;10.39;79.72;98512.13;7361749;19;19922;-63
2023/12/30 09:12:58;;;;;;;;;;;;;;;10.39;79.58;98513.00;7364470;19;19994;-63
2023/12/30 09:15:23;;;;;;;;;;;;;;;10.41;79.95;98504.25;7368014;19;19934;-64
2023/12/30 09:17:48;;;;;;;;;;;;;;;10.43;79.92;98500.59;7360984;19;19922;-63
2023/12/30 09:20:13;;;;;;;;;;;;;;;10.44;79.83;98493.59;7366314;19;20509;-63
2023/12/30 09:22:39;;;;;;;;;;;;;;;10.46;79.87;98487.38;7362023;19;19919;-63
2023/12/30 09:25:04;;;;;;;;;;;;;;;10.47;79.94;98457.75;7364864;19;19918;-63
2023/12/30 09:27:29;;;;;;;;;;;;;;;10.47;79.93;98436.88;7362644;19;19915;-63
2023/12/30 09:29:55;;;;;;;;;;;;;;;10.49;79.99;98429.81;7366050;19;20233;-62
2023/12/30 09:32:20;;;;;;;;;;;;;;;10.50;79.62;98423.66;7364240;19;19925;-63
2023/12/30 09:34:46;;;;;;;;;;;;;;;10.51;79.61;98443.59;7372661;19;19922;-63
2023/12/30 09:37:11;;;;;;;;;;;;;;;10.53;80.03;98433.06;7364068;19;19928;-64
2023/12/30 09:39:37;;;;;;;;;;;;;;;10.54;80.11;98442.56;7363859;19;19927;-63
2023/12/30 09:42:02;;;;;;;;;;;;;;;10.57;79.90;98465.88;7365773;19;20873;-64
2023/12/30 09:44:28;;;;;;;;;;;;;;;10.57;80.24;98443.22;7360149;19;20295;-63
2023/12/30 09:46:54;;;;;;;;;;;;;;;10.59;79.86;98459.66;7343954;19;20017;-64
2023/12/30 09:49:20;;;;;;;;;;;;;;;10.61;80.32;98452.56;7365270;19;20370;-62
2023/12/30 09:51:45;;;;;;;;;;;;;;;10.62;80.33;98446.41;7367948;19;19930;-63
2023/12/30 09:54:10;;;;;;;;;;;;;;;10.65;80.28;98453.25;7367888;19;19998;-63
2023/12/30 09:56:35;;;;;;;;;;;;;;;10.68;80.33;98441.75;7365733;19;19915;-64
2023/12/30 09:59:01;;;;;;;;;;;;;;;10.68;79.90;98439.16;7368488;19;19948;-63
2023/12/30 10:01:27;;;;;;;;;;;;;;;10.69;80.20;98436.44;7364514;19;19911;-63
2023/12/30 10:03:52;;;;;;;;;;;;;;;10.72;80.14;98435.44;7365992;19;19922;-63
2023/12/30 10:06:20;;;;;;;;;;;;;;;10.74;80.06;98444.00;7363541;19;19919;-63
2023/12/30 10:08:45;;;;;;;;;;;;;;;10.77;80.54;98451.66;7372045;19;20291;-64
2023/12/30 10:11:11;;;;;;;;;;;;;;;10.79;80.54;98429.75;7364792;19;19915;-63
2023/12/30 10:13:37;;;;;;;;;;;;;;;10.81;80.49;98433.13;7364531;19;20445;-63
2023/12/30 10:16:05;;;;;;;;;;;;;;;10.84;80.19;98430.31;7361542;19;19911;-64
2023/12/30 10:18:31;;;;;;;;;;;;;;;10.86;80.33;98438.06;7363265;19;20245;-63
2023/12/30 10:20:57;;;;;;;;;;;;;;;10.86;80.56;98427.63;7363016;19;20326;-63
2023/12/30 10:23:24;;;;;;;;;;;;;;;10.89;80.60;98443.09;7364838;19;20014;-63
2023/12/30 10:25:49;;;;;;;;;;;;;;;10.89;80.18;98443.09;7370519;19;19926;-63
2023/12/30 10:28:15;;;;;;;;;;;;;;;10.91;80.63;98441.25;7365397;19;19915;-63
2023/12/30 10:30:40;;;;;;;;;;;;;;;10.94;80.41;98446.25;7371723;19;19915;-63
2023/12/30 10:33:07;;;;;;;;;;;;;;;10.96;80.35;98438.34;7370161;19;19922;-62
2023/12/30 10:35:32;;;;;;;;;;;;;;;10.98;80.84;98460.81;7367788;19;19923;-64
2023/12/30 10:37:59;;;;;;;;;;;;;;;11.01;80.68;98481.53;7367855;19;20608;-62
2023/12/30 10:40:24;;;;;;;;;;;;;;;11.05;80.79;98503.94;7371405;19;20270;-63
2023/12/30 10:42:50;;;;;;;;;;;;;;;11.07;80.04;98511.66;7368668;19;19919;-63
2023/12/30 10:45:15;;;;;;;;;;;;;;;11.05;79.99;98490.88;7367792;19;19923;-63
2023/12/30 10:47:40;;;;;;;;;;;;;;;11.03;79.66;98487.50;7370178;19;19914;-62
2023/12/30 10:50:07;;;;;;;;;;;;;;;10.99;79.71;98480.78;7368444;19;19943;-64
2023/12/30 10:52:34;;;;;;;;;;;;;;;10.93;79.55;98495.97;7370728;19;19929;-63
2023/12/30 10:55:04;;;;;;;;;;;;;;;10.87;79.86;98491.97;7370256;19;19918;-64
2023/12/30 10:57:31;;;;;;;;;;;;;;;10.80;79.70;98491.50;7370152;19;19926;-64
2023/12/30 10:59:57;;;;;;;;;;;;;;;10.76;79.28;98500.44;7373404;19;20348;-63
2023/12/30 11:02:23;;;;;;;;;;;;;;;10.72;79.56;98511.13;7369136;19;19922;-63
2023/12/30 11:04:48;;;;;;;;;;;;;;;10.69;79.31;98516.53;7375300;19;19978;-64
2023/12/30 11:07:15;;;;;;;;;;;;;;;10.64;79.68;98512.44;7379281;19;19926;-62
2023/12/30 11:09:42;;;;;;;;;;;;;;;10.59;79.55;98513.59;7367181;19;19915;-63
2023/12/30 11:12:08;;;;;;;;;;;;;;;10.56;79.89;98519.84;7371508;19;19930;-63
2023/12/30 11:14:35;;;;;;;;;;;;;;;10.53;79.95;98504.34;7370694;19;19957;-61
2023/12/30 11:17:00;;;;;;;;;;;;;;;10.50;80.09;98493.28;7371791;19;19983;-64
2023/12/30 11:19:26;;;;;;;;;;;;;;;10.48;79.79;98498.56;7372605;19;20335;-63
2023/12/30 11:21:52;;;;;;;;;;;;;;;10.46;79.75;98486.56;7379396;19;19926;-63
2023/12/30 11:24:18;;;;;;;;;;;;;;;10.43;80.19;98477.13;7373608;19;21616;-63
2023/12/30 11:26:44;;;;;;;;;;;;;;;10.42;80.32;98475.44;7372554;19;20351;-63
2023/12/30 11:29:17;;;;;;;;;;;;;;;10.40;80.37;98482.53;7372159;19;20592;-63
2023/12/30 11:31:43;;;;;;;;;;;;;;;10.39;80.29;98476.47;7370152;19;19922;-63
2023/12/30 11:34:09;;;;;;;;;;;;;;;10.39;80.10;98439.06;7364368;19;20367;-63
2023/12/30 11:36:35;;;;;;;;;;;;;;;10.39;80.38;98444.28;7370402;19;20006;-64
2023/12/30 11:39:00;;;;;;;;;;;;;;;10.38;80.49;98458.28;7371128;19;19927;-63
2023/12/30 11:41:27;;;;;;;;;;;;;;;10.39;80.15;98465.16;7367731;19;20260;-64
2023/12/30 11:44:00;;;;;;;;;;;;;;;10.38;80.12;98447.84;7371112;19;19926;-64
2023/12/30 11:46:26;;;;;;;;;;;;;;;10.37;80.39;98456.59;7371067;19;20023;-64
2023/12/30 11:48:51;;;;;;;;;;;;;;;10.36;80.53;98440.13;7370355;19;20410;-64
2023/12/30 11:51:20;;;;;;;;;;;;;;;10.36;80.07;98413.19;7373144;19;19923;-64
2023/12/30 11:53:46;;;;;;;;;;;;;;;10.35;80.41;98398.47;7351735;19;20373;-64
2023/12/30 11:56:11;;;;;;;;;;;;;;;10.36;80.53;98379.28;7374444;19;19915;-64
2023/12/30 11:58:36;;;;;;;;;;;;;;;10.34;80.58;98394.16;7374806;19;19923;-64
2023/12/30 12:01:01;;;;;;;;;;;;;;;10.35;80.24;98380.22;7375123;19;19915;-63
2023/12/30 12:03:27;;;;;;;;;;;;;;;10.32;80.06;98333.41;7371554;19;19919;-63
2023/12/30 12:05:52;;;;;;;;;;;;;;;10.32;80.48;98341.25;7371785;19;19952;-65
2023/12/30 12:08:17;;;;;;;;;;;;;;;10.31;80.14;98342.19;7367829;19;19922;-65
2023/12/30 12:10:42;;;;;;;;;;;;;;;10.30;80.06;98350.94;7369244;19;19923;-65
2023/12/30 12:13:09;;;;;;;;;;;;;;;10.29;80.43;98344.03;7370080;19;20335;-65
2023/12/30 12:15:35;;;;;;;;;;;;;;;10.29;80.44;98338.81;7371258;19;19952;-64
2023/12/30 12:18:00;;;;;;;;;;;;;;;10.29;80.58;98338.81;7364454;19;19932;-64
2023/12/30 12:20:26;;;;;;;;;;;;;;;10.28;80.36;98348.41;7369790;19;19923;-64
2023/12/30 12:22:54;;;;;;;;;;;;;;;10.30;80.60;98377.03;7368279;19;20727;-66
2023/12/30 12:25:19;;;;;;;;;;;;;;;10.32;80.53;98380.38;7366748;19;19942;-64
2023/12/30 12:27:47;;;;;;;;;;;;;;;10.34;80.80;98399.38;7369452;19;19994;-65
2023/12/30 12:30:12;;;;;;;;;;;;;;;10.36;80.94;98403.59;7365562;19;19914;-64
2023/12/30 12:32:40;;;;;;;;;;;;;;;10.40;80.91;98383.38;7367704;19;20346;-65
2023/12/30 12:35:05;;;;;;;;;;;;;;;10.43;80.82;98388.41;7365197;19;20626;-64
2023/12/30 12:37:31;;;;;;;;;;;;;;;10.47;80.86;98384.69;7369527;19;19929;-65
2023/12/30 12:39:56;;;;;;;;;;;;;;;10.53;81.19;98371.28;7367457;19;19979;-65
2023/12/30 12:42:21;;;;;;;;;;;;;;;10.59;81.17;98365.72;7368861;19;19922;-65
2023/12/30 12:44:47;;;;;;;;;;;;;;;10.65;80.86;98341.84;7365768;19;19922;-65